sensor_id;sensor_type;location;lat;lon;timestamp;pressure;altitude;pressure_sealevel;temperature;humidity
70976;BME280;58635;51.198;6.010;2023-04-19T00:02:16;102404.31;;;14.40;51.17
70976;BME280;58635;51.198;6.010;2023-04-19T00:04:43;102398.28;;;14.39;51.31
70976;BME280;58635;51.198;6.010;2023-04-19T00:07:09;102397.31;;;14.40;51.39
70976;BME280;58635;51.198;6.010;2023-04-19T00:09:35;102394.53;;;14.42;51.22
70976;BME280;58635;51.198;6.010;2023-04-19T00:12:01;102396.31;;;14.41;51.15
70976;BME280;58635;51.198;6.010;2023-04-19T00:14:27;102404.13;;;14.41;51.30
70976;BME280;58635;51.198;6.010;2023-04-19T00:16:52;102404.13;;;14.41;51.41
70976;BME280;58635;51.198;6.010;2023-04-19T00:19:18;102398.91;;;14.41;51.45
70976;BME280;58635;51.198;6.010;2023-04-19T00:21:43;102396.94;;;14.43;51.39
70976;BME280;58635;51.198;6.010;2023-04-19T00:24:08;102401.19;;;14.44;51.36
70976;BME280;58635;51.198;6.010;2023-04-19T00:26:34;102399.44;;;14.45;51.38
70976;BME280;58635;51.198;6.010;2023-04-19T00:28:59;102396.94;;;14.43;51.66
70976;BME280;58635;51.198;6.010;2023-04-19T00:31:25;102394.34;;;14.43;51.55
70976;BME280;58635;51.198;6.010;2023-04-19T00:33:50;102395.66;;;14.47;51.38
70976;BME280;58635;51.198;6.010;2023-04-19T00:36:15;102399.88;;;14.48;51.38
70976;BME280;58635;51.198;6.010;2023-04-19T00:38:41;102404.44;;;14.46;51.43
70976;BME280;58635;51.198;6.010;2023-04-19T00:41:06;102402.97;;;14.44;51.52
70976;BME280;58635;51.198;6.010;2023-04-19T00:43:31;102401.19;;;14.44;51.53
70976;BME280;58635;51.198;6.010;2023-04-19T00:45:57;102401.84;;;14.46;51.66
70976;BME280;58635;51.198;6.010;2023-04-19T00:48:23;102396.44;;;14.48;51.60
70976;BME280;58635;51.198;6.010;2023-04-19T00:50:48;102387.84;;;14.47;51.56
70976;BME280;58635;51.198;6.010;2023-04-19T00:53:14;102382.44;;;14.49;51.72
70976;BME280;58635;51.198;6.010;2023-04-19T00:55:40;102394.03;;;14.46;51.78
70976;BME280;58635;51.198;6.010;2023-04-19T00:58:07;102394.22;;;14.45;51.83
70976;BME280;58635;51.198;6.010;2023-04-19T01:00:33;102394.34;;;14.43;51.86
70976;BME280;58635;51.198;6.010;2023-04-19T01:02:59;102398.13;;;14.41;51.97
70976;BME280;58635;51.198;6.010;2023-04-19T01:05:25;102390.47;;;14.39;51.93
70976;BME280;58635;51.198;6.010;2023-04-19T01:07:51;102391.28;;;14.40;52.09
70976;BME280;58635;51.198;6.010;2023-04-19T01:10:16;102386.91;;;14.40;52.17
70976;BME280;58635;51.198;6.010;2023-04-19T01:12:42;102387.69;;;14.41;52.18
70976;BME280;58635;51.198;6.010;2023-04-19T01:15:08;102392.72;;;14.42;52.08
70976;BME280;58635;51.198;6.010;2023-04-19T01:17:33;102383.91;;;14.43;52.09
70976;BME280;58635;51.198;6.010;2023-04-19T01:20:00;102384.09;;;14.42;51.94
70976;BME280;58635;51.198;6.010;2023-04-19T01:22:26;102388.69;;;14.40;52.33
70976;BME280;58635;51.198;6.010;2023-04-19T01:24:52;102387.06;;;14.39;52.37
70976;BME280;58635;51.198;6.010;2023-04-19T01:27:17;102393.09;;;14.39;52.43
70976;BME280;58635;51.198;6.010;2023-04-19T01:29:44;102382.69;;;14.39;52.53
70976;BME280;58635;51.198;6.010;2023-04-19T01:32:09;102381.50;;;14.42;52.41
70976;BME280;58635;51.198;6.010;2023-04-19T01:34:37;102378.59;;;14.45;52.31
70976;BME280;58635;51.198;6.010;2023-04-19T01:37:02;102375.81;;;14.46;52.32
70976;BME280;58635;51.198;6.010;2023-04-19T01:39:28;102377.91;;;14.43;52.59
70976;BME280;58635;51.198;6.010;2023-04-19T01:41:53;102372.44;;;14.38;52.68
70976;BME280;58635;51.198;6.010;2023-04-19T01:44:18;102374.06;;;14.39;52.63
70976;BME280;58635;51.198;6.010;2023-04-19T01:46:44;102372.63;;;14.36;52.88
70976;BME280;58635;51.198;6.010;2023-04-19T01:49:10;102370.41;;;14.33;52.81
70976;BME280;58635;51.198;6.010;2023-04-19T01:51:37;102374.50;;;14.27;53.10
70976;BME280;58635;51.198;6.010;2023-04-19T01:54:02;102373.25;;;14.23;53.33
70976;BME280;58635;51.198;6.010;2023-04-19T01:56:28;102369.84;;;14.23;53.22
70976;BME280;58635;51.198;6.010;2023-04-19T01:58:54;102374.25;;;14.22;53.38
70976;BME280;58635;51.198;6.010;2023-04-19T02:01:19;102376.19;;;14.20;53.46
70976;BME280;58635;51.198;6.010;2023-04-19T02:03:45;102369.22;;;14.21;53.44
70976;BME280;58635;51.198;6.010;2023-04-19T02:06:13;102367.56;;;14.20;53.54
70976;BME280;58635;51.198;6.010;2023-04-19T02:08:40;102363.38;;;14.19;53.67
70976;BME280;58635;51.198;6.010;2023-04-19T02:11:10;102359.78;;;14.20;53.74
70976;BME280;58635;51.198;6.010;2023-04-19T02:13:35;102366.78;;;14.19;53.58
70976;BME280;58635;51.198;6.010;2023-04-19T02:16:01;102360.75;;;14.19;53.78
70976;BME280;58635;51.198;6.010;2023-04-19T02:18:28;102352.31;;;14.17;53.90
70976;BME280;58635;51.198;6.010;2023-04-19T02:20:57;102352.31;;;14.17;53.91
70976;BME280;58635;51.198;6.010;2023-04-19T02:23:22;102347.03;;;14.10;54.10
70976;BME280;58635;51.198;6.010;2023-04-19T02:25:48;102359.59;;;14.07;54.26
70976;BME280;58635;51.198;6.010;2023-04-19T02:28:13;102353.94;;;14.03;54.39
70976;BME280;58635;51.198;6.010;2023-04-19T02:30:39;102353.50;;;13.99;54.46
70976;BME280;58635;51.198;6.010;2023-04-19T02:33:04;102357.22;;;13.97;54.38
70976;BME280;58635;51.198;6.010;2023-04-19T02:35:29;102354.38;;;13.92;54.58
70976;BME280;58635;51.198;6.010;2023-04-19T02:37:55;102351.13;;;13.90;54.55
70976;BME280;58635;51.198;6.010;2023-04-19T02:40:20;102358.31;;;13.88;54.65
70976;BME280;58635;51.198;6.010;2023-04-19T02:42:47;102352.31;;;13.87;54.80
70976;BME280;58635;51.198;6.010;2023-04-19T02:45:12;102359.28;;;13.87;54.82
70976;BME280;58635;51.198;6.010;2023-04-19T02:47:38;102356.22;;;13.83;55.10
70976;BME280;58635;51.198;6.010;2023-04-19T02:50:04;102348.41;;;13.83;55.09
70976;BME280;58635;51.198;6.010;2023-04-19T02:52:30;102354.44;;;13.84;55.08
70976;BME280;58635;51.198;6.010;2023-04-19T02:54:55;102352.00;;;13.82;55.13
70976;BME280;58635;51.198;6.010;2023-04-19T02:57:20;102350.56;;;13.80;55.26
70976;BME280;58635;51.198;6.010;2023-04-19T02:59:46;102346.91;;;13.74;55.65
70976;BME280;58635;51.198;6.010;2023-04-19T03:02:11;102354.22;;;13.70;55.86
70976;BME280;58635;51.198;6.010;2023-04-19T03:04:36;102358.16;;;13.66;55.96
70976;BME280;58635;51.198;6.010;2023-04-19T03:07:02;102360.94;;;13.65;56.15
70976;BME280;58635;51.198;6.010;2023-04-19T03:09:27;102353.16;;;13.65;56.32
70976;BME280;58635;51.198;6.010;2023-04-19T03:11:53;102351.72;;;13.62;56.63
70976;BME280;58635;51.198;6.010;2023-04-19T03:14:19;102357.88;;;13.61;56.63
70976;BME280;58635;51.198;6.010;2023-04-19T03:16:44;102350.06;;;13.61;56.89
70976;BME280;58635;51.198;6.010;2023-04-19T03:19:10;102355.91;;;13.63;56.85
70976;BME280;58635;51.198;6.010;2023-04-19T03:21:35;102351.72;;;13.62;57.22
70976;BME280;58635;51.198;6.010;2023-04-19T03:24:01;102354.94;;;13.64;57.25
70976;BME280;58635;51.198;6.010;2023-04-19T03:26:26;102359.16;;;13.65;57.11
70976;BME280;58635;51.198;6.010;2023-04-19T03:28:52;102351.16;;;13.67;57.16
70976;BME280;58635;51.198;6.010;2023-04-19T03:31:17;102350.19;;;13.68;57.22
70976;BME280;58635;51.198;6.010;2023-04-19T03:33:43;102344.63;;;13.71;57.11
70976;BME280;58635;51.198;6.010;2023-04-19T03:36:08;102339.25;;;13.72;57.01
70976;BME280;58635;51.198;6.010;2023-04-19T03:38:33;102339.91;;;13.74;57.11
70976;BME280;58635;51.198;6.010;2023-04-19T03:40:59;102343.13;;;13.77;57.09
70976;BME280;58635;51.198;6.010;2023-04-19T03:43:24;102343.13;;;13.77;57.15
70976;BME280;58635;51.198;6.010;2023-04-19T03:45:50;102334.97;;;13.80;57.23
70976;BME280;58635;51.198;6.010;2023-04-19T03:48:16;102333.00;;;13.82;57.12
70976;BME280;58635;51.198;6.010;2023-04-19T03:50:41;102332.81;;;13.83;57.11
70976;BME280;58635;51.198;6.010;2023-04-19T03:53:07;102336.88;;;13.86;57.18
70976;BME280;58635;51.198;6.010;2023-04-19T03:55:32;102340.91;;;13.88;57.05
70976;BME280;58635;51.198;6.010;2023-04-19T03:57:58;102337.78;;;13.93;56.77
70976;BME280;58635;51.198;6.010;2023-04-19T04:00:23;102331.88;;;13.99;56.68
70976;BME280;58635;51.198;6.010;2023-04-19T04:02:49;102334.28;;;14.00;56.72
70976;BME280;58635;51.198;6.010;2023-04-19T04:05:14;102339.50;;;14.00;56.68
70976;BME280;58635;51.198;6.010;2023-04-19T04:07:40;102341.72;;;14.03;56.51
70976;BME280;58635;51.198;6.010;2023-04-19T04:10:07;102349.34;;;14.05;56.47
70976;BME280;58635;51.198;6.010;2023-04-19T04:12:32;102349.97;;;14.07;56.46
70976;BME280;58635;51.198;6.010;2023-04-19T04:14:58;102351.59;;;14.08;56.32
70976;BME280;58635;51.198;6.010;2023-04-19T04:17:23;102347.19;;;14.09;56.10
70976;BME280;58635;51.198;6.010;2023-04-19T04:19:49;102346.75;;;14.05;56.06
70976;BME280;58635;51.198;6.010;2023-04-19T04:22:15;102351.16;;;14.04;56.13
70976;BME280;58635;51.198;6.010;2023-04-19T04:24:41;102343.53;;;14.03;55.97
70976;BME280;58635;51.198;6.010;2023-04-19T04:27:07;102342.53;;;14.04;55.87
70976;BME280;58635;51.198;6.010;2023-04-19T04:29:37;102342.72;;;14.02;55.90
70976;BME280;58635;51.198;6.010;2023-04-19T04:32:05;102342.53;;;14.04;55.75
70976;BME280;58635;51.198;6.010;2023-04-19T04:34:33;102338.94;;;14.05;55.60
70976;BME280;58635;51.198;6.010;2023-04-19T04:37:00;102343.97;;;14.07;55.46
70976;BME280;58635;51.198;6.010;2023-04-19T04:39:25;102338.94;;;14.05;55.23
70976;BME280;58635;51.198;6.010;2023-04-19T04:41:50;102343.97;;;14.07;55.18
70976;BME280;58635;51.198;6.010;2023-04-19T04:44:17;102347.56;;;14.05;55.28
70976;BME280;58635;51.198;6.010;2023-04-19T04:46:44;102345.13;;;14.04;55.11
70976;BME280;58635;51.198;6.010;2023-04-19T04:49:10;102351.16;;;14.04;55.14
70976;BME280;58635;51.198;6.010;2023-04-19T04:51:36;102346.13;;;14.03;55.08
70976;BME280;58635;51.198;6.010;2023-04-19T04:54:01;102350.34;;;14.04;54.92
70976;BME280;58635;51.198;6.010;2023-04-19T04:56:27;102349.19;;;14.07;54.83
70976;BME280;58635;51.198;6.010;2023-04-19T04:58:52;102349.00;;;14.08;54.78
70976;BME280;58635;51.198;6.010;2023-04-19T05:01:18;102351.59;;;14.08;54.84
70976;BME280;58635;51.198;6.010;2023-04-19T05:03:44;102351.44;;;14.10;54.63
70976;BME280;58635;51.198;6.010;2023-04-19T05:06:10;102353.25;;;14.09;54.68
70976;BME280;58635;51.198;6.010;2023-04-19T05:08:35;102354.66;;;14.12;54.61
70976;BME280;58635;51.198;6.010;2023-04-19T05:11:01;102353.50;;;14.14;54.54
70976;BME280;58635;51.198;6.010;2023-04-19T05:13:26;102350.72;;;14.16;54.42
70976;BME280;58635;51.198;6.010;2023-04-19T05:15:52;102348.72;;;14.18;54.16
70976;BME280;58635;51.198;6.010;2023-04-19T05:18:17;102351.34;;;14.18;54.08
70976;BME280;58635;51.198;6.010;2023-04-19T05:20:42;102352.16;;;14.18;54.15
70976;BME280;58635;51.198;6.010;2023-04-19T05:23:08;102351.97;;;14.20;54.19
70976;BME280;58635;51.198;6.010;2023-04-19T05:25:35;102347.22;;;14.23;53.91
70976;BME280;58635;51.198;6.010;2023-04-19T05:28:01;102349.47;;;14.26;54.04
70976;BME280;58635;51.198;6.010;2023-04-19T05:30:27;102344.25;;;14.26;53.82
70976;BME280;58635;51.198;6.010;2023-04-19T05:32:53;102352.69;;;14.28;54.02
70976;BME280;58635;51.198;6.010;2023-04-19T05:35:18;102345.88;;;14.27;53.82
70976;BME280;58635;51.198;6.010;2023-04-19T05:37:44;102351.88;;;14.28;53.86
70976;BME280;58635;51.198;6.010;2023-04-19T05:40:10;102336.63;;;14.25;54.01
70976;BME280;58635;51.198;6.010;2023-04-19T05:42:36;102344.53;;;14.31;53.80
70976;BME280;58635;51.198;6.010;2023-04-19T05:45:02;102337.63;;;14.39;53.87
70976;BME280;58635;51.198;6.010;2023-04-19T05:47:27;102337.38;;;14.48;53.56
70976;BME280;58635;51.198;6.010;2023-04-19T05:49:53;102335.66;;;14.55;53.28
70976;BME280;58635;51.198;6.010;2023-04-19T05:52:18;102332.97;;;14.49;53.22
70976;BME280;58635;51.198;6.010;2023-04-19T05:54:43;102345.56;;;14.45;52.99
70976;BME280;58635;51.198;6.010;2023-04-19T05:57:09;102349.03;;;14.38;53.06
70976;BME280;58635;51.198;6.010;2023-04-19T05:59:34;102349.19;;;14.36;53.11
70976;BME280;58635;51.198;6.010;2023-04-19T06:02:00;102348.66;;;14.41;52.89
70976;BME280;58635;51.198;6.010;2023-04-19T06:04:26;102344.38;;;14.48;52.38
70976;BME280;58635;51.198;6.010;2023-04-19T06:06:51;102345.91;;;14.57;52.04
70976;BME280;58635;51.198;6.010;2023-04-19T06:09:17;102346.88;;;14.71;51.79
70976;BME280;58635;51.198;6.010;2023-04-19T06:11:43;102352.75;;;14.79;51.23
70976;BME280;58635;51.198;6.010;2023-04-19T06:14:09;102348.03;;;14.83;50.90
70976;BME280;58635;51.198;6.010;2023-04-19T06:16:35;102352.41;;;14.82;50.10
70976;BME280;58635;51.198;6.010;2023-04-19T06:19:00;102362.84;;;14.82;49.68
70976;BME280;58635;51.198;6.010;2023-04-19T06:21:25;102357.63;;;14.82;49.37
70976;BME280;58635;51.198;6.010;2023-04-19T06:23:53;102359.94;;;14.92;48.87
70976;BME280;58635;51.198;6.010;2023-04-19T06:26:19;102358.28;;;15.06;48.33
70976;BME280;58635;51.198;6.010;2023-04-19T06:28:44;102359.66;;;15.23;48.08
70976;BME280;58635;51.198;6.010;2023-04-19T06:31:10;102350.03;;;15.45;47.43
70976;BME280;58635;51.198;6.010;2023-04-19T06:33:36;102352.25;;;15.63;46.88
70976;BME280;58635;51.198;6.010;2023-04-19T06:36:01;102364.53;;;15.69;46.35
70976;BME280;58635;51.198;6.010;2023-04-19T06:38:28;102352.72;;;15.73;46.15
70976;BME280;58635;51.198;6.010;2023-04-19T06:40:53;102353.38;;;15.82;46.05
70976;BME280;58635;51.198;6.010;2023-04-19T06:43:19;102348.06;;;15.96;45.74
70976;BME280;58635;51.198;6.010;2023-04-19T06:45:45;102341.56;;;16.14;45.36
70976;BME280;58635;51.198;6.010;2023-04-19T06:48:11;102348.63;;;16.20;45.06
70976;BME280;58635;51.198;6.010;2023-04-19T06:50:36;102351.94;;;16.35;45.13
70976;BME280;58635;51.198;6.010;2023-04-19T06:53:01;102344.75;;;16.50;44.57
70976;BME280;58635;51.198;6.010;2023-04-19T06:55:27;102357.69;;;16.65;44.31
70976;BME280;58635;51.198;6.010;2023-04-19T06:57:52;102357.31;;;16.68;44.06
70976;BME280;58635;51.198;6.010;2023-04-19T07:00:18;102348.66;;;16.67;43.52
70976;BME280;58635;51.198;6.010;2023-04-19T07:02:43;102351.84;;;16.63;43.65
70976;BME280;58635;51.198;6.010;2023-04-19T07:05:09;102357.88;;;16.63;43.59
70976;BME280;58635;51.198;6.010;2023-04-19T07:07:34;102358.34;;;16.74;43.55
70976;BME280;58635;51.198;6.010;2023-04-19T07:10:02;102359.00;;;16.82;43.29
70976;BME280;58635;51.198;6.010;2023-04-19T07:12:27;102351.75;;;16.84;43.13
70976;BME280;58635;51.198;6.010;2023-04-19T07:14:53;102348.75;;;16.87;43.29
70976;BME280;58635;51.198;6.010;2023-04-19T07:17:21;102355.22;;;16.98;43.12
70976;BME280;58635;51.198;6.010;2023-04-19T07:19:47;102353.84;;;17.09;42.62
70976;BME280;58635;51.198;6.010;2023-04-19T07:22:13;102350.41;;;17.08;42.30
70976;BME280;58635;51.198;6.010;2023-04-19T07:24:38;102352.19;;;17.01;42.28
70976;BME280;58635;51.198;6.010;2023-04-19T07:27:06;102348.19;;;16.99;42.73
70976;BME280;58635;51.198;6.010;2023-04-19T07:29:33;102352.19;;;17.01;42.54
70976;BME280;58635;51.198;6.010;2023-04-19T07:31:59;102353.81;;;17.02;42.57
70976;BME280;58635;51.198;6.010;2023-04-19T07:34:26;102349.81;;;17.06;42.48
70976;BME280;58635;51.198;6.010;2023-04-19T07:36:51;102353.44;;;17.12;42.25
70976;BME280;58635;51.198;6.010;2023-04-19T07:39:17;102353.84;;;17.09;41.83
70976;BME280;58635;51.198;6.010;2023-04-19T07:41:43;102354.00;;;17.01;41.31
70976;BME280;58635;51.198;6.010;2023-04-19T07:44:09;102356.41;;;16.95;41.65
70976;BME280;58635;51.198;6.010;2023-04-19T07:46:35;102359.63;;;16.98;41.70
70976;BME280;58635;51.198;6.010;2023-04-19T07:49:01;102358.44;;;17.00;41.59
70976;BME280;58635;51.198;6.010;2023-04-19T07:51:26;102364.25;;;17.02;40.77
70976;BME280;58635;51.198;6.010;2023-04-19T07:53:52;102349.38;;;16.96;40.72
70976;BME280;58635;51.198;6.010;2023-04-19T07:56:17;102353.38;;;16.92;40.30
70976;BME280;58635;51.198;6.010;2023-04-19T07:58:44;102351.97;;;16.83;39.81
70976;BME280;58635;51.198;6.010;2023-04-19T08:01:10;102344.88;;;16.77;39.96
70976;BME280;58635;51.198;6.010;2023-04-19T08:03:35;102349.09;;;16.78;39.81
70976;BME280;58635;51.198;6.010;2023-04-19T08:06:05;102344.06;;;16.70;39.67
70976;BME280;58635;51.198;6.010;2023-04-19T08:08:35;102341.78;;;16.60;39.75
70976;BME280;58635;51.198;6.010;2023-04-19T08:11:00;102350.19;;;16.55;39.37
70976;BME280;58635;51.198;6.010;2023-04-19T08:13:27;102337.72;;;16.51;39.28
70976;BME280;58635;51.198;6.010;2023-04-19T08:15:52;102345.56;;;16.51;39.28
70976;BME280;58635;51.198;6.010;2023-04-19T08:18:18;102344.56;;;16.52;39.40
70976;BME280;58635;51.198;6.010;2023-04-19T08:20:45;102330.53;;;16.59;39.12
70976;BME280;58635;51.198;6.010;2023-04-19T08:23:10;102336.41;;;16.68;38.91
70976;BME280;58635;51.198;6.010;2023-04-19T08:25:37;102337.84;;;16.71;38.66
70976;BME280;58635;51.198;6.010;2023-04-19T08:28:03;102338.84;;;16.76;38.38
70976;BME280;58635;51.198;6.010;2023-04-19T08:30:28;102332.84;;;16.76;38.37
70976;BME280;58635;51.198;6.010;2023-04-19T08:32:54;102329.63;;;16.80;38.19
70976;BME280;58635;51.198;6.010;2023-04-19T08:35:20;102326.03;;;16.88;38.40
70976;BME280;58635;51.198;6.010;2023-04-19T08:37:45;102330.69;;;16.99;37.93
70976;BME280;58635;51.198;6.010;2023-04-19T08:40:12;102333.31;;;17.06;37.71
70976;BME280;58635;51.198;6.010;2023-04-19T08:42:39;102322.88;;;17.06;37.08
70976;BME280;58635;51.198;6.010;2023-04-19T08:45:05;102335.31;;;17.04;37.17
70976;BME280;58635;51.198;6.010;2023-04-19T08:47:35;102328.88;;;17.00;37.17
70976;BME280;58635;51.198;6.010;2023-04-19T08:50:03;102330.69;;;16.99;37.12
70976;BME280;58635;51.198;6.010;2023-04-19T08:52:29;102329.06;;;17.05;37.12
70976;BME280;58635;51.198;6.010;2023-04-19T08:54:57;102322.88;;;17.06;36.96
70976;BME280;58635;51.198;6.010;2023-04-19T08:57:22;102328.28;;;17.04;36.88
70976;BME280;58635;51.198;6.010;2023-04-19T08:59:48;102315.81;;;17.06;36.75
70976;BME280;58635;51.198;6.010;2023-04-19T09:02:20;102322.66;;;17.14;36.56
70976;BME280;58635;51.198;6.010;2023-04-19T09:04:45;102324.69;;;17.18;36.49
70976;BME280;58635;51.198;6.010;2023-04-19T09:07:24;102318.44;;;17.26;36.00
70976;BME280;58635;51.198;6.010;2023-04-19T09:10:10;102322.28;;;17.23;35.43
70976;BME280;58635;51.198;6.010;2023-04-19T09:12:37;102310.81;;;17.18;35.68
70976;BME280;58635;51.198;6.010;2023-04-19T09:15:05;102316.03;;;17.24;35.74
70976;BME280;58635;51.198;6.010;2023-04-19T09:17:34;102310.81;;;17.31;35.40
70976;BME280;58635;51.198;6.010;2023-04-19T09:19:59;102319.88;;;17.35;35.64
70976;BME280;58635;51.198;6.010;2023-04-19T09:22:25;102310.81;;;17.38;35.44
70976;BME280;58635;51.198;6.010;2023-04-19T09:24:51;102311.03;;;17.43;35.01
70976;BME280;58635;51.198;6.010;2023-04-19T09:27:31;102312.22;;;17.47;34.95
70976;BME280;58635;51.198;6.010;2023-04-19T09:29:59;102305.41;;;17.52;34.71
70976;BME280;58635;51.198;6.010;2023-04-19T09:32:26;102315.03;;;17.52;34.37
70976;BME280;58635;51.198;6.010;2023-04-19T09:34:56;102310.81;;;17.51;34.43
70976;BME280;58635;51.198;6.010;2023-04-19T09:37:22;102307.19;;;17.52;34.41
70976;BME280;58635;51.198;6.010;2023-04-19T09:39:48;102300.16;;;17.59;34.32
70976;BME280;58635;51.198;6.010;2023-04-19T09:42:14;102297.31;;;17.67;34.10
70976;BME280;58635;51.198;6.010;2023-04-19T09:44:39;102298.75;;;17.76;34.37
70976;BME280;58635;51.198;6.010;2023-04-19T09:47:22;102289.28;;;17.89;33.93
70976;BME280;58635;51.198;6.010;2023-04-19T09:50:02;102298.53;;;17.91;33.26
70976;BME280;58635;51.198;6.010;2023-04-19T09:52:28;102299.16;;;17.80;32.49
70976;BME280;58635;51.198;6.010;2023-04-19T09:54:54;102305.38;;;17.72;32.63
70976;BME280;58635;51.198;6.010;2023-04-19T09:57:22;102300.97;;;17.73;32.66
70976;BME280;58635;51.198;6.010;2023-04-19T09:59:47;102315.25;;;17.70;32.23
70976;BME280;58635;51.198;6.010;2023-04-19T10:02:13;102304.38;;;17.60;31.99
70976;BME280;58635;51.198;6.010;2023-04-19T10:04:41;102306.78;;;17.62;31.83
70976;BME280;58635;51.198;6.010;2023-04-19T10:07:07;102295.50;;;17.61;31.45
70976;BME280;58635;51.198;6.010;2023-04-19T10:09:34;102286.66;;;17.62;31.46
70976;BME280;58635;51.198;6.010;2023-04-19T10:12:00;102291.69;;;17.64;31.30
70976;BME280;58635;51.198;6.010;2023-04-19T10:14:26;102290.88;;;17.63;31.21
70976;BME280;58635;51.198;6.010;2023-04-19T10:16:57;102292.31;;;17.66;30.68
70976;BME280;58635;51.198;6.010;2023-04-19T10:19:23;102292.50;;;17.64;30.18
70976;BME280;58635;51.198;6.010;2023-04-19T10:21:49;102290.69;;;17.58;30.44
70976;BME280;58635;51.198;6.010;2023-04-19T10:24:16;102290.69;;;17.51;30.69
70976;BME280;58635;51.198;6.010;2023-04-19T10:30:00;102287.69;;;17.48;29.56
70976;BME280;58635;51.198;6.010;2023-04-19T10:32:29;102275.41;;;17.48;29.38
70976;BME280;58635;51.198;6.010;2023-04-19T10:35:04;102282.66;;;17.46;28.53
70976;BME280;58635;51.198;6.010;2023-04-19T10:37:31;102283.44;;;17.47;28.37
70976;BME280;58635;51.198;6.010;2023-04-19T10:39:57;102271.38;;;17.52;28.50
70976;BME280;58635;51.198;6.010;2023-04-19T10:42:22;102280.03;;;17.60;28.26
70976;BME280;58635;51.198;6.010;2023-04-19T10:47:51;102279.00;;;17.67;28.47
70976;BME280;58635;51.198;6.010;2023-04-19T10:50:17;102273.56;;;17.75;28.17
70976;BME280;58635;51.198;6.010;2023-04-19T10:52:42;102279.00;;;17.80;27.77
70976;BME280;58635;51.198;6.010;2023-04-19T10:55:08;102271.13;;;17.87;27.65
70976;BME280;58635;51.198;6.010;2023-04-19T10:58:05;102274.13;;;17.97;27.35
70976;BME280;58635;51.198;6.010;2023-04-19T11:00:31;102272.94;;;18.00;27.50
70976;BME280;58635;51.198;6.010;2023-04-19T11:04:21;102266.66;;;18.07;27.45
70976;BME280;58635;51.198;6.010;2023-04-19T11:06:17;102255.16;;;18.15;26.83
70976;BME280;58635;51.198;6.010;2023-04-19T11:08:45;102258.13;;;18.25;26.94
70976;BME280;58635;51.198;6.010;2023-04-19T11:11:11;102249.22;;;18.33;27.16
70976;BME280;58635;51.198;6.010;2023-04-19T11:13:41;102253.81;;;18.44;27.37
70976;BME280;58635;51.198;6.010;2023-04-19T11:16:07;102250.94;;;18.52;27.42
70976;BME280;58635;51.198;6.010;2023-04-19T11:18:33;102257.16;;;18.58;27.16
70976;BME280;58635;51.198;6.010;2023-04-19T11:20:58;102245.44;;;18.67;26.62
70976;BME280;58635;51.198;6.010;2023-04-19T11:23:25;102239.56;;;18.72;26.12
70976;BME280;58635;51.198;6.010;2023-04-19T11:25:51;102236.31;;;18.76;26.30
70976;BME280;58635;51.198;6.010;2023-04-19T11:28:17;102238.03;;;18.89;25.96
70976;BME280;58635;51.198;6.010;2023-04-19T11:30:43;102242.47;;;18.88;25.49
70976;BME280;58635;51.198;6.010;2023-04-19T11:33:11;102226.16;;;18.86;25.47
70976;BME280;58635;51.198;6.010;2023-04-19T11:35:37;102237.00;;;18.90;25.43
70976;BME280;58635;51.198;6.010;2023-04-19T11:38:03;102233.59;;;18.89;25.33
70976;BME280;58635;51.198;6.010;2023-04-19T11:40:31;102245.06;;;18.95;24.78
70976;BME280;58635;51.198;6.010;2023-04-19T11:42:58;102220.97;;;19.05;24.97
70976;BME280;58635;51.198;6.010;2023-04-19T11:47:54;102219.78;;;19.25;24.49
70976;BME280;58635;51.198;6.010;2023-04-19T11:50:34;102218.03;;;19.38;24.48
70976;BME280;58635;51.198;6.010;2023-04-19T11:53:15;102221.19;;;19.46;23.61
70976;BME280;58635;51.198;6.010;2023-04-19T11:55:42;102216.69;;;19.53;23.82
70976;BME280;58635;51.198;6.010;2023-04-19T11:58:21;102222.03;;;19.65;23.83
70976;BME280;58635;51.198;6.010;2023-04-19T12:00:47;102213.50;;;19.88;23.43
70976;BME280;58635;51.198;6.010;2023-04-19T12:03:12;102210.28;;;20.04;22.91
70976;BME280;58635;51.198;6.010;2023-04-19T12:05:38;102194.28;;;20.06;22.98
70976;BME280;58635;51.198;6.010;2023-04-19T12:08:04;102206.91;;;20.15;23.43
70976;BME280;58635;51.198;6.010;2023-04-19T12:10:32;102200.09;;;20.26;23.14
70976;BME280;58635;51.198;6.010;2023-04-19T12:12:58;102209.47;;;20.34;23.18
70976;BME280;58635;51.198;6.010;2023-04-19T12:15:40;102202.75;;;20.38;23.06
70976;BME280;58635;51.198;6.010;2023-04-19T12:18:05;102187.56;;;20.40;23.06
70976;BME280;58635;51.198;6.010;2023-04-19T12:20:35;102208.66;;;20.52;22.68
70976;BME280;58635;51.198;6.010;2023-04-19T12:23:01;102198.72;;;20.54;22.14
70976;BME280;58635;51.198;6.010;2023-04-19T12:25:31;102199.63;;;20.59;21.99
70976;BME280;58635;51.198;6.010;2023-04-19T12:28:01;102205.34;;;20.56;21.53
70976;BME280;58635;51.198;6.010;2023-04-19T12:30:27;102193.19;;;20.43;21.37
70976;BME280;58635;51.198;6.010;2023-04-19T12:32:53;102197.50;;;20.38;21.57
70976;BME280;58635;51.198;6.010;2023-04-19T12:35:23;102195.53;;;20.33;21.51
70976;BME280;58635;51.198;6.010;2023-04-19T12:37:51;102186.41;;;20.36;21.66
70976;BME280;58635;51.198;6.010;2023-04-19T12:40:17;102176.50;;;20.38;21.95
70976;BME280;58635;51.198;6.010;2023-04-19T12:42:42;102181.00;;;20.49;21.93
70976;BME280;58635;51.198;6.010;2023-04-19T12:45:09;102184.22;;;20.63;22.13
70976;BME280;58635;51.198;6.010;2023-04-19T12:47:34;102183.69;;;20.72;22.09
70976;BME280;58635;51.198;6.010;2023-04-19T12:50:00;102191.34;;;20.86;22.33
70976;BME280;58635;51.198;6.010;2023-04-19T12:52:26;102176.59;;;20.96;22.20
70976;BME280;58635;51.198;6.010;2023-04-19T12:54:51;102180.94;;;21.02;22.21
70976;BME280;58635;51.198;6.010;2023-04-19T12:57:16;102169.50;;;21.09;22.01